Latest Coastal Weather Observations for Tewantin

IDQ60701

Issued at 12:22 pm EST Sunday 26 January 2020 (issued every 10 minutes, with the page automatically refreshed every 10 minutes)

About coastal observations | Map of coastal stations | Coastal observations for QLD | Marine services | Other Formats
Station Details ID: 040908 Name: TEWANTIN RSL PARK Lat: -26.39 Lon: 153.04 Height: 6.4 m
Data from the previous 72 hours. | See also: Recent months at Tewantin
Date/Time
EST
Wind Sea
Height
m
Swell Vis
km
Cloud Weather Temp
°C
Press
hPa
Rain since
9am
mm
Dir  Spd
kts
Gust
kts
Height
m
Period
s
Dir
26/12:00pm NE 8 13 - - - - - - - 28.4 1014.1 0.0
26/11:30am NE 9 14 - - - - - - - 27.9 1014.3 0.0
26/11:00am NE 7 11 - - - - - - - 28.5 1014.4 0.0
26/10:30am NE 6 9 - - - - - - - 27.9 1014.3 0.0
26/10:00am NE 7 12 - - - - - - - 27.8 1014.5 0.0
26/09:30am N 2 5 - - - - - - - 26.4 1014.6 0.0
26/09:00am NNW 5 8 - - - - - - Rain 25.9 1014.6 1.2
26/08:30am WSW 2 4 - - - - - - - 24.8 1014.6 1.0
26/08:00am WNW 4 7 - - - - - - - 23.9 1014.6 1.0
26/07:30am NW 5 9 - - - - - - - 24.5 1014.5 0.0
26/07:00am N 4 8 - - - - - - - 24.5 1014.2 0.0
26/06:30am N 7 9 - - - - - - - 24.1 1013.7 0.0
26/06:00am NE 6 14 - - - - - - - 25.3 1013.4 0.0
26/05:30am SSE 3 4 - - - - - - - 23.8 1013.1 0.0
26/05:00am SSE 2 4 - - - - - - - 23.8 1012.7 0.0
26/04:30am ESE 1 3 - - - - - - - 24.3 1012.5 0.0
26/04:00am E 3 6 - - - - - - - 24.8 1012.4 0.0
26/03:30am E 3 5 - - - - - - - 24.8 1012.4 0.0
26/03:00am E 1 3 - - - - - - - 24.8 1012.5 0.0
26/02:30am ENE 4 6 - - - - - - - 25.0 1012.7 0.0
26/02:00am ENE 4 6 - - - - - - - 24.8 1012.7 0.0
26/01:30am ENE 4 6 - - - - - - - 24.9 1013.0 0.0
26/01:00am ENE 4 7 - - - - - - - 24.9 1013.3 0.0
26/12:30am NE 3 5 - - - - - - - 25.1 1013.5 0.0
26/12:00am NE 3 5 - - - - - - - 25.6 1013.7 0.0
 
Date/Time
EST
Wind Sea
Height
m
Swell Vis
km
Cloud Weather Temp
°C
Press
hPa
Rain since
9am
mm
Dir  Spd
kts
Gust
kts
Height
m
Period
s
Dir
25/11:30pm CALM 0 0 - - - - - - - 25.2 1014.1 0.0
25/11:00pm ENE 2 4 - - - - - - - 25.2 1014.2 0.0
25/10:30pm NE 4 6 - - - - - - - 25.5 1014.2 0.0
25/10:00pm NNE 5 6 - - - - - - - 26.0 1014.2 0.0
25/09:30pm NNE 5 8 - - - - - - - 26.2 1014.0 0.0
25/09:00pm NE 4 7 - - - - - - - 26.3 1013.8 0.0
25/08:30pm NE 4 8 - - - - - - - 26.2 1013.5 0.0
25/08:00pm NNE 5 8 - - - - - - - 26.3 1013.4 0.0
25/07:30pm NE 5 8 - - - - - - - 26.1 1013.2 0.0
25/07:00pm NE 6 10 - - - - - - - 26.3 1012.9 0.0
25/06:30pm NE 6 9 - - - - - - - 26.6 1012.7 0.0
25/06:00pm NE 7 12 - - - - - - - 26.8 1012.4 0.0
25/05:30pm NE 6 10 - - - - - - - 27.5 1012.0 0.0
25/05:00pm NE 7 11 - - - - - - - 27.4 1011.8 0.0
25/04:30pm NE 7 12 - - - - - - - 27.9 1011.7 0.0
25/04:00pm NE 8 13 - - - - - - - 28.2 1011.7 0.0
25/03:30pm NE 8 12 - - - - - - - 28.8 1011.6 0.0
25/03:00pm NE 9 17 - - - - - - - 28.7 1011.8 0.0
25/02:30pm NE 10 15 - - - - - - - 28.9 1011.9 0.0
25/02:00pm NE 11 17 - - - - - - - 28.9 1011.8 0.0
25/01:30pm NE 9 16 - - - - - - - 28.4 1012.0 0.0
25/01:00pm NNE 10 15 - - - - - - - 28.5 1012.2 0.0
25/12:30pm NE 9 16 - - - - - - - 28.3 1012.6 0.0
25/12:00pm NE 9 17 - - - - - - - 28.5 1012.9 0.0
25/11:30am NNE 11 17 - - - - - - - 29.4 1013.1 0.0
25/11:00am NE 10 15 - - - - - - - 29.4 1013.4 0.0
25/10:30am NNE 13 18 - - - - - - - 28.4 1013.5 0.0
25/10:00am NNE 11 15 - - - - - - - 28.1 1013.2 0.0
25/09:30am NNE 10 15 - - - - - - - 28.1 1013.1 0.0
25/09:00am NNE 9 13 - - - - - - - 27.9 1013.1 0.0
25/08:30am NNE 4 7 - - - - - - - 28.6 1013.2 0.0
25/08:00am N 7 10 - - - - - - - 27.4 1013.1 0.0
25/07:30am N 2 4 - - - - - - - 26.9 1013.0 0.0
25/07:00am NNW 1 3 - - - - - - - 26.4 1012.8 0.0
25/06:30am CALM 0 0 - - - - - - - 26.3 1012.5 0.0
25/06:00am NNW 2 5 - - - - - - - 25.7 1012.3 0.0
25/05:30am N 4 5 - - - - - - - 25.6 1011.8 0.0
25/05:00am NNE 3 5 - - - - - - - 25.5 1012.0 0.0
25/04:30am N 3 4 - - - - - - - 25.5 1011.7 0.0
25/04:00am NNE 3 4 - - - - - - - 25.4 1011.4 0.0
25/03:30am N 1 3 - - - - - - - 25.4 1011.4 0.0
25/03:00am NW 4 5 - - - - - - - 25.6 1011.5 0.0
25/02:30am CALM 0 3 - - - - - - - 26.0 1011.6 0.0
25/02:00am NNW 4 6 - - - - - - - 26.1 1011.5 0.0
25/01:30am N 6 9 - - - - - - - 26.1 1011.4 0.0
25/01:00am N 5 7 - - - - - - - 26.0 1011.9 0.0
25/12:30am NNW 4 6 - - - - - - - 25.9 1012.1 0.0
25/12:00am N 3 4 - - - - - - - 25.6 1012.1 0.0
 
Date/Time
EST
Wind Sea
Height
m
Swell Vis
km
Cloud Weather Temp
°C
Press
hPa
Rain since
9am
mm
Dir  Spd
kts
Gust
kts
Height
m
Period
s
Dir
24/11:30pm NW 2 4 - - - - - - - 25.8 1012.4 0.0
24/11:00pm N 3 4 - - - - - - - 25.9 1012.3 0.0
24/10:30pm NNE 3 4 - - - - - - - 26.0 1012.1 0.0
24/10:00pm N 3 4 - - - - - - - 26.1 1012.2 0.0
24/09:30pm N 5 7 - - - - - - - 26.3 1012.1 0.0
24/09:00pm NNE 6 10 - - - - - - - 26.5 1011.7 0.0
24/08:30pm NNE 6 9 - - - - - - - 26.6 1011.6 0.0
24/08:00pm NNE 6 10 - - - - - - - 26.5 1011.2 0.0
24/07:30pm NNE 7 11 - - - - - - - 26.4 1010.8 0.0
24/07:00pm NNE 7 10 - - - - - - - 26.6 1010.7 0.0
24/06:30pm NNE 10 14 - - - - - - - 26.8 1010.2 0.0
24/06:00pm NNE 9 13 - - - - - - - 27.3 1009.9 0.0
24/05:30pm NNE 10 16 - - - - - - - 27.3 1009.6 0.0
24/05:00pm NNE 12 18 - - - - - - - 27.3 1009.4 0.0
24/04:30pm NNE 11 16 - - - - - - - 28.3 1009.4 0.0
24/04:00pm NNE 12 17 - - - - - - - 28.7 1009.5 0.0
24/03:30pm NNE 12 20 - - - - - - - 28.6 1009.5 0.0
24/03:00pm NNE 10 17 - - - - - - - 28.4 1010.0 0.0
24/02:30pm NNE 11 21 - - - - - - - 28.6 1010.2 0.0
24/02:00pm NNE 10 17 - - - - - - - 28.6 1010.3 0.0
24/01:30pm NNE 10 17 - - - - - - - 28.8 1010.7 0.0
24/01:00pm NNE 10 17 - - - - - - - 29.2 1011.1 0.0
24/12:30pm NNE 9 15 - - - - - - - 29.1 1011.4 0.0
24/12:00pm NNE 10 13 - - - - - - - 29.3 1011.8 0.0
24/11:30am NE 8 11 - - - - - - - 29.1 1012.4 0.0
24/11:00am N 7 11 - - - - - - - 29.1 1012.6 0.0
24/10:30am NE 6 10 - - - - - - - 29.0 1013.0 0.0
24/10:00am NE 6 10 - - - - - - - 28.5 1013.1 0.0
24/09:30am N 7 11 - - - - - - - 27.9 1013.3 0.0
24/09:00am N 6 9 - - - - - - - 27.9 1013.4 2.8
24/08:30am N 5 8 - - - - - - - 27.8 1013.4 2.8
24/08:00am NNW 6 9 - - - - - - - 26.7 1013.5 2.8
24/07:30am NNW 4 6 - - - - - - - 27.4 1013.4 2.8
24/07:00am NNW 4 5 - - - - - - - 26.6 1013.0 2.8
24/06:30am NNW 2 4 - - - - - - - 25.5 1012.8 2.8
24/06:00am WNW 3 4 - - - - - - - 25.3 1012.4 2.8
24/05:30am WNW 2 4 - - - - - - - 25.2 1011.8 2.8
24/05:00am NNW 5 7 - - - - - - - 25.3 1011.2 2.8
24/04:30am NNW 5 8 - - - - - - - 25.5 1011.1 2.8
24/04:00am N 5 9 - - - - - - - 25.6 1010.9 2.8
24/03:30am N 4 6 - - - - - - - 25.6 1011.1 2.8
24/03:00am N 6 8 - - - - - - - 25.9 1011.3 2.8
24/02:30am N 5 7 - - - - - - - 26.0 1011.6 2.8
24/02:00am N 4 6 - - - - - - - 26.0 1011.8 2.8
24/01:30am N 5 7 - - - - - - - 26.1 1011.8 2.8
24/01:00am NNW 5 8 - - - - - - - 26.1 1012.2 2.8
24/12:30am N 5 8 - - - - - - - 26.3 1012.2 2.8
24/12:00am NNW 5 7 - - - - - - - 26.2 1012.3 2.8
 
Date/Time
EST
Wind Sea
Height
m
Swell Vis
km
Cloud Weather Temp
°C
Press
hPa
Rain since
9am
mm
Dir  Spd
kts
Gust
kts
Height
m
Period
s
Dir
23/11:30pm N 5 7 - - - - - - - 26.0 1012.5 2.8
23/11:00pm NNE 4 6 - - - - - - - 25.9 1012.8 2.8
23/10:30pm N 4 6 - - - - - - - 26.0 1012.7 2.8
23/10:00pm NNE 5 7 - - - - - - - 26.0 1012.8 2.8
23/09:30pm N 5 6 - - - - - - - 25.9 1012.8 2.8
23/09:00pm NNE 6 8 - - - - - - - 26.1 1012.2 2.8
23/08:30pm N 6 9 - - - - - - - 26.1 1011.9 2.8
23/08:00pm N 4 7 - - - - - - - 26.0 1011.9 2.8
23/07:30pm NNE 6 9 - - - - - - - 26.2 1011.6 2.8
23/07:00pm NNE 7 11 - - - - - - - 26.3 1011.3 2.8
23/06:30pm NNE 6 9 - - - - - - - 26.4 1011.1 2.8
23/06:00pm NNE 7 11 - - - - - - - 26.6 1010.7 2.8
23/05:30pm NNE 5 8 - - - - - - - 26.8 1010.5 2.8
23/05:00pm NNE 5 9 - - - - - - - 26.8 1010.4 2.8
23/04:30pm NNE 7 10 - - - - - - - 27.0 1010.2 2.8
23/04:00pm NNE 7 11 - - - - - - - 26.8 1010.2 2.8
23/03:30pm NNE 9 15 - - - - - - - 26.5 1010.4 2.8
23/03:00pm NNE 8 12 - - - - - - Recent precip. 26.4 1010.8 2.8
23/02:30pm NE 6 10 - - - - - - - 26.3 1011.2 2.8
23/02:00pm NNE 8 15 - - - - - - - 26.7 1011.8 1.4
23/01:30pm NNE 8 14 - - - - - - - 28.2 1011.9 0.0
23/01:00pm NNE 4 7 - - - - - - - 29.0 1012.2 0.0
23/12:30pm N 7 9 - - - - - - - 28.1 1012.3 0.0

Other formats

Comma delimited format used in spreadsheet applications
http://www.bom.gov.au/fwo/IDQ60701/IDQ60701.94570.axf

JavaScript Object Notation format (JSON) in row-major order
http://www.bom.gov.au/fwo/IDQ60701/IDQ60701.94570.json

Data quality

Most of these data are generated automatically and are frequently updated. Quality checks on data are not normally performed. It is possible for incorrect values to appear. Refer to information at About Latest Weather Observations and please check the disclaimer before using these data.